sensor_id;sensor_type;location;lat;lon;timestamp;temperature;humidity
48666;DHT22;34452;50.796;4.994;2024-02-26T00:00:27;7.50;99.90
48666;DHT22;34452;50.796;4.994;2024-02-26T00:02:53;7.40;99.90
48666;DHT22;34452;50.796;4.994;2024-02-26T00:05:19;7.40;99.90
48666;DHT22;34452;50.796;4.994;2024-02-26T00:07:44;7.40;99.90
48666;DHT22;34452;50.796;4.994;2024-02-26T00:10:10;7.40;99.90
48666;DHT22;34452;50.796;4.994;2024-02-26T00:12:36;7.40;99.90
48666;DHT22;34452;50.796;4.994;2024-02-26T00:15:01;7.40;99.90
48666;DHT22;34452;50.796;4.994;2024-02-26T00:17:27;7.40;99.90
48666;DHT22;34452;50.796;4.994;2024-02-26T00:19:52;7.40;99.90
48666;DHT22;34452;50.796;4.994;2024-02-26T00:22:18;7.40;99.90
48666;DHT22;34452;50.796;4.994;2024-02-26T00:24:44;7.40;99.90
48666;DHT22;34452;50.796;4.994;2024-02-26T00:27:09;7.40;99.90
48666;DHT22;34452;50.796;4.994;2024-02-26T00:29:35;7.40;99.90
48666;DHT22;34452;50.796;4.994;2024-02-26T00:32:00;7.40;99.90
48666;DHT22;34452;50.796;4.994;2024-02-26T00:34:26;7.40;99.90
48666;DHT22;34452;50.796;4.994;2024-02-26T00:36:51;7.30;99.90
48666;DHT22;34452;50.796;4.994;2024-02-26T00:39:17;7.30;99.90
48666;DHT22;34452;50.796;4.994;2024-02-26T00:41:43;7.30;99.90
48666;DHT22;34452;50.796;4.994;2024-02-26T00:44:08;7.30;99.90
48666;DHT22;34452;50.796;4.994;2024-02-26T00:46:34;7.30;99.90
48666;DHT22;34452;50.796;4.994;2024-02-26T00:49:00;7.30;99.90
48666;DHT22;34452;50.796;4.994;2024-02-26T00:51:26;7.30;99.90
48666;DHT22;34452;50.796;4.994;2024-02-26T00:53:52;7.30;99.90
48666;DHT22;34452;50.796;4.994;2024-02-26T00:56:18;7.30;99.90
48666;DHT22;34452;50.796;4.994;2024-02-26T00:58:43;7.30;99.90
48666;DHT22;34452;50.796;4.994;2024-02-26T01:01:09;7.20;99.90
48666;DHT22;34452;50.796;4.994;2024-02-26T01:03:34;7.20;99.90
48666;DHT22;34452;50.796;4.994;2024-02-26T01:06:00;7.20;99.90
48666;DHT22;34452;50.796;4.994;2024-02-26T01:08:25;7.20;99.90
48666;DHT22;34452;50.796;4.994;2024-02-26T01:10:51;7.20;99.90
48666;DHT22;34452;50.796;4.994;2024-02-26T01:13:16;7.20;99.90
48666;DHT22;34452;50.796;4.994;2024-02-26T01:15:43;7.20;99.90
48666;DHT22;34452;50.796;4.994;2024-02-26T01:18:09;7.20;99.90
48666;DHT22;34452;50.796;4.994;2024-02-26T01:20:34;7.20;99.90
48666;DHT22;34452;50.796;4.994;2024-02-26T01:23:00;7.20;99.90
48666;DHT22;34452;50.796;4.994;2024-02-26T01:25:26;7.10;99.90
48666;DHT22;34452;50.796;4.994;2024-02-26T01:27:51;7.20;99.90
48666;DHT22;34452;50.796;4.994;2024-02-26T01:30:17;7.10;99.90
48666;DHT22;34452;50.796;4.994;2024-02-26T01:32:42;7.10;99.90
48666;DHT22;34452;50.796;4.994;2024-02-26T01:35:08;7.10;99.90
48666;DHT22;34452;50.796;4.994;2024-02-26T01:37:36;7.10;99.90
48666;DHT22;34452;50.796;4.994;2024-02-26T01:40:02;7.10;99.90
48666;DHT22;34452;50.796;4.994;2024-02-26T01:42:29;7.10;99.90
48666;DHT22;34452;50.796;4.994;2024-02-26T01:44:56;7.10;99.90
48666;DHT22;34452;50.796;4.994;2024-02-26T01:47:21;7.10;99.90
48666;DHT22;34452;50.796;4.994;2024-02-26T01:49:48;7.10;99.90
48666;DHT22;34452;50.796;4.994;2024-02-26T01:52:13;7.10;99.90
48666;DHT22;34452;50.796;4.994;2024-02-26T01:54:39;7.10;99.90
48666;DHT22;34452;50.796;4.994;2024-02-26T01:57:05;7.10;99.90
48666;DHT22;34452;50.796;4.994;2024-02-26T01:59:32;7.10;99.90
48666;DHT22;34452;50.796;4.994;2024-02-26T02:01:59;7.10;99.90
48666;DHT22;34452;50.796;4.994;2024-02-26T02:04:27;7.10;99.90
48666;DHT22;34452;50.796;4.994;2024-02-26T02:06:53;7.00;99.90
48666;DHT22;34452;50.796;4.994;2024-02-26T02:09:19;7.00;99.90
48666;DHT22;34452;50.796;4.994;2024-02-26T02:11:44;7.00;99.90
48666;DHT22;34452;50.796;4.994;2024-02-26T02:14:11;7.00;99.90
48666;DHT22;34452;50.796;4.994;2024-02-26T02:16:37;7.00;99.90
48666;DHT22;34452;50.796;4.994;2024-02-26T02:19:02;7.10;99.90
48666;DHT22;34452;50.796;4.994;2024-02-26T02:21:28;7.00;99.90
48666;DHT22;34452;50.796;4.994;2024-02-26T02:23:53;7.00;99.90
48666;DHT22;34452;50.796;4.994;2024-02-26T02:26:19;7.00;99.90
48666;DHT22;34452;50.796;4.994;2024-02-26T02:28:45;7.00;99.90
48666;DHT22;34452;50.796;4.994;2024-02-26T02:31:11;7.00;99.90
48666;DHT22;34452;50.796;4.994;2024-02-26T02:33:37;7.00;99.90
48666;DHT22;34452;50.796;4.994;2024-02-26T02:36:03;7.00;99.90
48666;DHT22;34452;50.796;4.994;2024-02-26T02:38:29;7.00;99.90
48666;DHT22;34452;50.796;4.994;2024-02-26T02:40:55;7.00;99.90
48666;DHT22;34452;50.796;4.994;2024-02-26T02:43:21;7.00;99.90
48666;DHT22;34452;50.796;4.994;2024-02-26T02:45:47;7.00;99.90
48666;DHT22;34452;50.796;4.994;2024-02-26T02:48:12;7.00;99.90
48666;DHT22;34452;50.796;4.994;2024-02-26T02:50:38;7.00;99.90
48666;DHT22;34452;50.796;4.994;2024-02-26T02:53:03;7.00;99.90
48666;DHT22;34452;50.796;4.994;2024-02-26T02:55:29;7.00;99.90
48666;DHT22;34452;50.796;4.994;2024-02-26T02:57:54;7.00;99.90
48666;DHT22;34452;50.796;4.994;2024-02-26T03:00:20;7.00;99.90
48666;DHT22;34452;50.796;4.994;2024-02-26T03:02:48;7.00;99.90
48666;DHT22;34452;50.796;4.994;2024-02-26T03:05:14;7.00;99.90
48666;DHT22;34452;50.796;4.994;2024-02-26T03:07:39;7.00;99.90
48666;DHT22;34452;50.796;4.994;2024-02-26T03:10:05;7.00;99.90
48666;DHT22;34452;50.796;4.994;2024-02-26T03:12:31;7.00;99.90
48666;DHT22;34452;50.796;4.994;2024-02-26T03:14:57;7.00;99.90
48666;DHT22;34452;50.796;4.994;2024-02-26T03:17:22;7.00;99.90
48666;DHT22;34452;50.796;4.994;2024-02-26T03:19:49;7.00;99.90
48666;DHT22;34452;50.796;4.994;2024-02-26T03:22:18;7.00;99.90
48666;DHT22;34452;50.796;4.994;2024-02-26T03:24:44;7.00;99.90
48666;DHT22;34452;50.796;4.994;2024-02-26T03:27:09;7.00;99.90
48666;DHT22;34452;50.796;4.994;2024-02-26T03:29:36;7.00;99.90
48666;DHT22;34452;50.796;4.994;2024-02-26T03:32:02;7.00;99.90
48666;DHT22;34452;50.796;4.994;2024-02-26T03:34:28;7.00;99.90
48666;DHT22;34452;50.796;4.994;2024-02-26T03:36:53;7.00;99.90
48666;DHT22;34452;50.796;4.994;2024-02-26T03:39:19;7.00;99.90
48666;DHT22;34452;50.796;4.994;2024-02-26T03:41:45;7.00;99.90
48666;DHT22;34452;50.796;4.994;2024-02-26T03:44:10;7.00;99.90
48666;DHT22;34452;50.796;4.994;2024-02-26T03:46:36;7.00;99.90
48666;DHT22;34452;50.796;4.994;2024-02-26T03:49:01;7.00;99.90
48666;DHT22;34452;50.796;4.994;2024-02-26T03:51:27;7.00;99.90
48666;DHT22;34452;50.796;4.994;2024-02-26T03:53:57;7.00;99.90
48666;DHT22;34452;50.796;4.994;2024-02-26T03:56:22;7.00;99.90
48666;DHT22;34452;50.796;4.994;2024-02-26T03:58:48;7.00;99.90
48666;DHT22;34452;50.796;4.994;2024-02-26T04:01:14;7.00;99.90
48666;DHT22;34452;50.796;4.994;2024-02-26T04:03:39;7.00;99.90
48666;DHT22;34452;50.796;4.994;2024-02-26T04:06:08;6.90;99.90
48666;DHT22;34452;50.796;4.994;2024-02-26T04:08:33;7.00;99.90
48666;DHT22;34452;50.796;4.994;2024-02-26T04:10:59;6.90;99.90
48666;DHT22;34452;50.796;4.994;2024-02-26T04:13:25;7.00;99.90
48666;DHT22;34452;50.796;4.994;2024-02-26T04:15:50;6.90;99.90
48666;DHT22;34452;50.796;4.994;2024-02-26T04:18:16;7.00;99.90
48666;DHT22;34452;50.796;4.994;2024-02-26T04:20:41;6.90;99.90
48666;DHT22;34452;50.796;4.994;2024-02-26T04:23:07;6.90;99.90
48666;DHT22;34452;50.796;4.994;2024-02-26T04:25:33;6.90;99.90
48666;DHT22;34452;50.796;4.994;2024-02-26T04:27:58;6.90;99.90
48666;DHT22;34452;50.796;4.994;2024-02-26T04:30:24;6.90;99.90
48666;DHT22;34452;50.796;4.994;2024-02-26T04:32:49;6.90;99.90
48666;DHT22;34452;50.796;4.994;2024-02-26T04:35:15;6.90;99.90
48666;DHT22;34452;50.796;4.994;2024-02-26T04:37:41;6.90;99.90
48666;DHT22;34452;50.796;4.994;2024-02-26T04:40:06;6.90;99.90
48666;DHT22;34452;50.796;4.994;2024-02-26T04:42:33;7.00;99.90
48666;DHT22;34452;50.796;4.994;2024-02-26T04:44:58;7.00;99.90
48666;DHT22;34452;50.796;4.994;2024-02-26T04:47:24;7.00;99.90
48666;DHT22;34452;50.796;4.994;2024-02-26T04:49:50;7.00;99.90
48666;DHT22;34452;50.796;4.994;2024-02-26T04:52:16;7.00;99.90
48666;DHT22;34452;50.796;4.994;2024-02-26T04:54:41;7.00;99.90
48666;DHT22;34452;50.796;4.994;2024-02-26T04:57:07;7.00;99.90
48666;DHT22;34452;50.796;4.994;2024-02-26T04:59:32;7.00;99.90
48666;DHT22;34452;50.796;4.994;2024-02-26T05:01:58;7.00;99.90
48666;DHT22;34452;50.796;4.994;2024-02-26T05:04:23;7.00;99.90
48666;DHT22;34452;50.796;4.994;2024-02-26T05:06:49;7.00;99.90
48666;DHT22;34452;50.796;4.994;2024-02-26T05:09:14;6.90;99.90
48666;DHT22;34452;50.796;4.994;2024-02-26T05:11:40;6.90;99.90
48666;DHT22;34452;50.796;4.994;2024-02-26T05:14:05;6.90;99.90
48666;DHT22;34452;50.796;4.994;2024-02-26T05:16:31;7.00;99.90
48666;DHT22;34452;50.796;4.994;2024-02-26T05:18:57;6.90;99.90
48666;DHT22;34452;50.796;4.994;2024-02-26T05:21:22;6.90;99.90
48666;DHT22;34452;50.796;4.994;2024-02-26T05:23:48;6.90;99.90
48666;DHT22;34452;50.796;4.994;2024-02-26T05:26:22;6.90;99.90
48666;DHT22;34452;50.796;4.994;2024-02-26T05:28:48;6.90;99.90
48666;DHT22;34452;50.796;4.994;2024-02-26T05:31:14;6.90;99.90
48666;DHT22;34452;50.796;4.994;2024-02-26T05:33:39;6.90;99.90
48666;DHT22;34452;50.796;4.994;2024-02-26T05:36:05;6.90;99.90
48666;DHT22;34452;50.796;4.994;2024-02-26T05:38:31;6.90;99.90
48666;DHT22;34452;50.796;4.994;2024-02-26T05:40:59;6.90;99.90
48666;DHT22;34452;50.796;4.994;2024-02-26T05:43:25;6.90;99.90
48666;DHT22;34452;50.796;4.994;2024-02-26T05:45:51;6.90;99.90
48666;DHT22;34452;50.796;4.994;2024-02-26T05:48:16;6.90;99.90
48666;DHT22;34452;50.796;4.994;2024-02-26T05:50:42;6.90;99.90
48666;DHT22;34452;50.796;4.994;2024-02-26T05:53:08;6.90;99.90
48666;DHT22;34452;50.796;4.994;2024-02-26T05:55:33;6.90;99.90
48666;DHT22;34452;50.796;4.994;2024-02-26T05:57:59;6.90;99.90
48666;DHT22;34452;50.796;4.994;2024-02-26T06:00:24;6.90;99.90
48666;DHT22;34452;50.796;4.994;2024-02-26T06:02:50;6.90;99.90
48666;DHT22;34452;50.796;4.994;2024-02-26T06:05:15;6.90;99.90
48666;DHT22;34452;50.796;4.994;2024-02-26T06:07:41;6.90;99.90
48666;DHT22;34452;50.796;4.994;2024-02-26T06:10:07;6.90;99.90
48666;DHT22;34452;50.796;4.994;2024-02-26T06:12:34;6.90;99.90
48666;DHT22;34452;50.796;4.994;2024-02-26T06:15:00;6.90;99.90
48666;DHT22;34452;50.796;4.994;2024-02-26T06:17:26;6.90;99.90
48666;DHT22;34452;50.796;4.994;2024-02-26T06:19:52;6.90;99.90
48666;DHT22;34452;50.796;4.994;2024-02-26T06:22:17;6.90;99.90
48666;DHT22;34452;50.796;4.994;2024-02-26T06:24:43;6.90;99.90
48666;DHT22;34452;50.796;4.994;2024-02-26T06:27:08;6.90;99.90
48666;DHT22;34452;50.796;4.994;2024-02-26T06:29:34;6.90;99.90
48666;DHT22;34452;50.796;4.994;2024-02-26T06:31:59;6.90;99.90
48666;DHT22;34452;50.796;4.994;2024-02-26T06:34:25;6.90;99.90
48666;DHT22;34452;50.796;4.994;2024-02-26T06:36:51;6.90;99.90
48666;DHT22;34452;50.796;4.994;2024-02-26T06:39:16;6.90;99.90
48666;DHT22;34452;50.796;4.994;2024-02-26T06:41:43;6.90;99.90
48666;DHT22;34452;50.796;4.994;2024-02-26T06:44:09;6.90;99.90
48666;DHT22;34452;50.796;4.994;2024-02-26T06:46:34;6.90;99.90
48666;DHT22;34452;50.796;4.994;2024-02-26T06:49:00;6.90;99.90
48666;DHT22;34452;50.796;4.994;2024-02-26T06:51:25;6.90;99.90
48666;DHT22;34452;50.796;4.994;2024-02-26T06:53:51;6.90;99.90
48666;DHT22;34452;50.796;4.994;2024-02-26T06:56:17;6.90;99.90
48666;DHT22;34452;50.796;4.994;2024-02-26T06:58:42;6.80;99.90
48666;DHT22;34452;50.796;4.994;2024-02-26T07:01:08;6.80;99.90
48666;DHT22;34452;50.796;4.994;2024-02-26T07:03:34;6.90;99.90
48666;DHT22;34452;50.796;4.994;2024-02-26T07:05:59;6.90;99.90
48666;DHT22;34452;50.796;4.994;2024-02-26T07:08:25;6.90;99.90
48666;DHT22;34452;50.796;4.994;2024-02-26T07:10:50;6.90;99.90
48666;DHT22;34452;50.796;4.994;2024-02-26T07:13:16;6.90;99.90
48666;DHT22;34452;50.796;4.994;2024-02-26T07:15:42;6.90;99.90
48666;DHT22;34452;50.796;4.994;2024-02-26T07:18:07;6.90;99.90
48666;DHT22;34452;50.796;4.994;2024-02-26T07:20:33;6.80;99.90
48666;DHT22;34452;50.796;4.994;2024-02-26T07:22:59;6.90;99.90
48666;DHT22;34452;50.796;4.994;2024-02-26T07:25:24;6.90;99.90
48666;DHT22;34452;50.796;4.994;2024-02-26T07:27:50;6.90;99.90
48666;DHT22;34452;50.796;4.994;2024-02-26T07:30:16;6.90;99.90
48666;DHT22;34452;50.796;4.994;2024-02-26T07:32:42;6.90;99.90
48666;DHT22;34452;50.796;4.994;2024-02-26T07:35:08;6.90;99.90
48666;DHT22;34452;50.796;4.994;2024-02-26T07:37:34;6.90;99.90
48666;DHT22;34452;50.796;4.994;2024-02-26T07:40:00;6.90;99.90
48666;DHT22;34452;50.796;4.994;2024-02-26T07:42:25;6.90;99.90
48666;DHT22;34452;50.796;4.994;2024-02-26T07:44:51;6.90;99.90
48666;DHT22;34452;50.796;4.994;2024-02-26T07:47:16;6.90;99.90
48666;DHT22;34452;50.796;4.994;2024-02-26T07:49:42;6.90;99.90
48666;DHT22;34452;50.796;4.994;2024-02-26T07:52:07;6.90;99.90
48666;DHT22;34452;50.796;4.994;2024-02-26T07:54:33;6.90;99.90
48666;DHT22;34452;50.796;4.994;2024-02-26T07:56:58;6.90;99.90
48666;DHT22;34452;50.796;4.994;2024-02-26T07:59:24;6.90;99.90
48666;DHT22;34452;50.796;4.994;2024-02-26T08:01:50;7.00;99.90
48666;DHT22;34452;50.796;4.994;2024-02-26T08:04:16;7.00;99.90
48666;DHT22;34452;50.796;4.994;2024-02-26T08:06:42;6.90;99.90
48666;DHT22;34452;50.796;4.994;2024-02-26T08:09:08;7.00;99.90
48666;DHT22;34452;50.796;4.994;2024-02-26T08:11:34;6.90;99.90
48666;DHT22;34452;50.796;4.994;2024-02-26T08:13:59;6.90;99.90
48666;DHT22;34452;50.796;4.994;2024-02-26T08:16:25;7.00;99.90
48666;DHT22;34452;50.796;4.994;2024-02-26T08:18:50;6.90;99.90
48666;DHT22;34452;50.796;4.994;2024-02-26T08:21:16;6.90;99.90
48666;DHT22;34452;50.796;4.994;2024-02-26T08:23:43;7.00;99.90
48666;DHT22;34452;50.796;4.994;2024-02-26T08:26:08;7.00;99.90
48666;DHT22;34452;50.796;4.994;2024-02-26T08:28:36;7.00;99.90
48666;DHT22;34452;50.796;4.994;2024-02-26T08:31:02;7.00;99.90
48666;DHT22;34452;50.796;4.994;2024-02-26T08:33:28;7.00;99.90
48666;DHT22;34452;50.796;4.994;2024-02-26T08:35:53;7.00;99.90
48666;DHT22;34452;50.796;4.994;2024-02-26T08:38:19;7.00;99.90
48666;DHT22;34452;50.796;4.994;2024-02-26T08:40:44;7.00;99.90
48666;DHT22;34452;50.796;4.994;2024-02-26T08:43:10;6.90;99.90
48666;DHT22;34452;50.796;4.994;2024-02-26T08:45:36;7.00;99.90
48666;DHT22;34452;50.796;4.994;2024-02-26T08:48:01;7.00;99.90
48666;DHT22;34452;50.796;4.994;2024-02-26T08:50:27;7.00;99.90
48666;DHT22;34452;50.796;4.994;2024-02-26T08:52:52;7.00;99.90
48666;DHT22;34452;50.796;4.994;2024-02-26T08:55:18;7.00;99.90
48666;DHT22;34452;50.796;4.994;2024-02-26T08:57:44;7.00;99.90
48666;DHT22;34452;50.796;4.994;2024-02-26T09:00:10;7.00;99.90
48666;DHT22;34452;50.796;4.994;2024-02-26T09:02:36;7.10;99.90
48666;DHT22;34452;50.796;4.994;2024-02-26T09:05:04;7.10;99.90
48666;DHT22;34452;50.796;4.994;2024-02-26T09:07:31;7.10;99.90
48666;DHT22;34452;50.796;4.994;2024-02-26T09:09:56;7.10;99.90
48666;DHT22;34452;50.796;4.994;2024-02-26T09:12:22;7.10;99.90
48666;DHT22;34452;50.796;4.994;2024-02-26T09:14:48;7.10;99.90
48666;DHT22;34452;50.796;4.994;2024-02-26T09:17:13;7.20;99.90
48666;DHT22;34452;50.796;4.994;2024-02-26T09:19:39;7.20;99.90
48666;DHT22;34452;50.796;4.994;2024-02-26T09:22:05;7.20;99.90
48666;DHT22;34452;50.796;4.994;2024-02-26T09:24:31;7.20;99.90
48666;DHT22;34452;50.796;4.994;2024-02-26T09:26:56;7.30;99.90
48666;DHT22;34452;50.796;4.994;2024-02-26T09:29:22;7.30;99.90
48666;DHT22;34452;50.796;4.994;2024-02-26T09:31:49;7.30;99.90
48666;DHT22;34452;50.796;4.994;2024-02-26T09:34:15;7.40;99.90
48666;DHT22;34452;50.796;4.994;2024-02-26T09:36:41;7.40;99.90
48666;DHT22;34452;50.796;4.994;2024-02-26T09:39:06;7.40;99.90
48666;DHT22;34452;50.796;4.994;2024-02-26T09:41:36;7.40;99.90
48666;DHT22;34452;50.796;4.994;2024-02-26T09:44:02;7.40;99.90
48666;DHT22;34452;50.796;4.994;2024-02-26T09:46:29;7.40;99.90
48666;DHT22;34452;50.796;4.994;2024-02-26T09:48:55;7.40;99.90
48666;DHT22;34452;50.796;4.994;2024-02-26T09:51:22;7.40;99.90
48666;DHT22;34452;50.796;4.994;2024-02-26T09:53:51;7.50;99.90
48666;DHT22;34452;50.796;4.994;2024-02-26T09:56:17;7.50;99.90
48666;DHT22;34452;50.796;4.994;2024-02-26T09:58:43;7.50;99.90
48666;DHT22;34452;50.796;4.994;2024-02-26T10:01:11;7.50;99.90
48666;DHT22;34452;50.796;4.994;2024-02-26T10:03:39;7.50;99.90
48666;DHT22;34452;50.796;4.994;2024-02-26T10:06:06;7.50;99.90
48666;DHT22;34452;50.796;4.994;2024-02-26T10:08:32;7.60;99.90
48666;DHT22;34452;50.796;4.994;2024-02-26T10:10:58;7.70;99.90
48666;DHT22;34452;50.796;4.994;2024-02-26T10:13:24;7.70;99.90
48666;DHT22;34452;50.796;4.994;2024-02-26T10:15:50;7.70;99.90
48666;DHT22;34452;50.796;4.994;2024-02-26T10:18:16;7.80;99.90
48666;DHT22;34452;50.796;4.994;2024-02-26T10:20:41;7.90;99.90
48666;DHT22;34452;50.796;4.994;2024-02-26T10:23:07;7.90;99.90
48666;DHT22;34452;50.796;4.994;2024-02-26T10:25:33;7.90;99.90
48666;DHT22;34452;50.796;4.994;2024-02-26T10:27:59;7.90;99.90
48666;DHT22;34452;50.796;4.994;2024-02-26T10:30:27;8.00;99.90
48666;DHT22;34452;50.796;4.994;2024-02-26T10:32:53;8.10;99.90
48666;DHT22;34452;50.796;4.994;2024-02-26T10:35:18;8.10;99.90
48666;DHT22;34452;50.796;4.994;2024-02-26T10:37:46;8.10;99.90
48666;DHT22;34452;50.796;4.994;2024-02-26T10:40:12;8.10;99.90
48666;DHT22;34452;50.796;4.994;2024-02-26T10:42:38;8.20;99.90
48666;DHT22;34452;50.796;4.994;2024-02-26T10:45:07;8.20;99.90
48666;DHT22;34452;50.796;4.994;2024-02-26T10:47:34;8.20;99.90
48666;DHT22;34452;50.796;4.994;2024-02-26T10:50:01;8.10;99.90
48666;DHT22;34452;50.796;4.994;2024-02-26T10:52:27;8.10;99.90
48666;DHT22;34452;50.796;4.994;2024-02-26T10:54:56;8.10;99.90
48666;DHT22;34452;50.796;4.994;2024-02-26T10:57:23;8.10;99.90
48666;DHT22;34452;50.796;4.994;2024-02-26T10:59:50;8.10;99.90
48666;DHT22;34452;50.796;4.994;2024-02-26T11:02:17;8.00;99.90
48666;DHT22;34452;50.796;4.994;2024-02-26T11:04:43;7.90;99.90
48666;DHT22;34452;50.796;4.994;2024-02-26T11:07:09;7.80;99.90
48666;DHT22;34452;50.796;4.994;2024-02-26T11:09:35;7.70;99.90
48666;DHT22;34452;50.796;4.994;2024-02-26T11:12:02;7.70;99.90
48666;DHT22;34452;50.796;4.994;2024-02-26T11:14:28;7.60;99.90
48666;DHT22;34452;50.796;4.994;2024-02-26T11:16:55;7.60;99.90
48666;DHT22;34452;50.796;4.994;2024-02-26T11:19:21;7.60;99.90
48666;DHT22;34452;50.796;4.994;2024-02-26T11:21:47;7.60;99.90
48666;DHT22;34452;50.796;4.994;2024-02-26T11:24:13;7.50;99.90
48666;DHT22;34452;50.796;4.994;2024-02-26T11:26:43;7.60;99.90
48666;DHT22;34452;50.796;4.994;2024-02-26T11:29:11;7.60;99.90
48666;DHT22;34452;50.796;4.994;2024-02-26T11:31:37;7.60;99.90
48666;DHT22;34452;50.796;4.994;2024-02-26T11:34:03;7.60;99.90
48666;DHT22;34452;50.796;4.994;2024-02-26T11:36:29;7.70;99.90
48666;DHT22;34452;50.796;4.994;2024-02-26T11:38:55;7.70;99.90
48666;DHT22;34452;50.796;4.994;2024-02-26T11:41:22;7.70;99.90
48666;DHT22;34452;50.796;4.994;2024-02-26T11:43:57;7.80;99.90
48666;DHT22;34452;50.796;4.994;2024-02-26T11:46:24;7.90;99.90
48666;DHT22;34452;50.796;4.994;2024-02-26T11:48:50;8.00;99.90
48666;DHT22;34452;50.796;4.994;2024-02-26T11:51:15;8.00;99.90
48666;DHT22;34452;50.796;4.994;2024-02-26T11:53:47;8.00;99.90
48666;DHT22;34452;50.796;4.994;2024-02-26T11:59:10;8.20;99.90
48666;DHT22;34452;50.796;4.994;2024-02-26T12:01:45;8.30;99.90
48666;DHT22;34452;50.796;4.994;2024-02-26T12:04:13;8.40;99.90
48666;DHT22;34452;50.796;4.994;2024-02-26T12:06:44;8.50;99.90
48666;DHT22;34452;50.796;4.994;2024-02-26T12:09:10;8.70;99.90
48666;DHT22;34452;50.796;4.994;2024-02-26T12:11:40;8.80;99.90
48666;DHT22;34452;50.796;4.994;2024-02-26T12:14:07;8.90;99.90
48666;DHT22;34452;50.796;4.994;2024-02-26T12:19:05;9.20;99.90
48666;DHT22;34452;50.796;4.994;2024-02-26T12:21:35;9.40;99.90
48666;DHT22;34452;50.796;4.994;2024-02-26T12:24:11;9.40;99.90
48666;DHT22;34452;50.796;4.994;2024-02-26T12:26:38;9.50;99.90
48666;DHT22;34452;50.796;4.994;2024-02-26T12:29:03;9.60;99.90
48666;DHT22;34452;50.796;4.994;2024-02-26T12:31:29;9.60;99.90
48666;DHT22;34452;50.796;4.994;2024-02-26T12:33:56;9.70;99.90
48666;DHT22;34452;50.796;4.994;2024-02-26T12:36:22;9.70;99.90
48666;DHT22;34452;50.796;4.994;2024-02-26T12:38:49;9.70;99.90
48666;DHT22;34452;50.796;4.994;2024-02-26T12:41:16;9.70;99.90
48666;DHT22;34452;50.796;4.994;2024-02-26T12:43:41;9.70;99.90
48666;DHT22;34452;50.796;4.994;2024-02-26T12:46:07;9.70;99.90
48666;DHT22;34452;50.796;4.994;2024-02-26T12:48:33;9.70;99.90
48666;DHT22;34452;50.796;4.994;2024-02-26T12:50:58;9.60;99.90
48666;DHT22;34452;50.796;4.994;2024-02-26T12:53:25;9.60;99.90
48666;DHT22;34452;50.796;4.994;2024-02-26T12:55:53;9.60;99.90
48666;DHT22;34452;50.796;4.994;2024-02-26T12:58:19;9.70;99.90
48666;DHT22;34452;50.796;4.994;2024-02-26T13:00:45;9.70;99.90
48666;DHT22;34452;50.796;4.994;2024-02-26T13:03:12;9.60;99.90
48666;DHT22;34452;50.796;4.994;2024-02-26T13:05:37;9.50;99.90
48666;DHT22;34452;50.796;4.994;2024-02-26T13:08:03;9.40;99.90
48666;DHT22;34452;50.796;4.994;2024-02-26T13:10:29;9.30;99.90
48666;DHT22;34452;50.796;4.994;2024-02-26T13:12:54;9.20;99.90
48666;DHT22;34452;50.796;4.994;2024-02-26T13:15:20;9.10;99.90
48666;DHT22;34452;50.796;4.994;2024-02-26T13:17:47;9.00;99.90
48666;DHT22;34452;50.796;4.994;2024-02-26T13:20:13;8.90;99.90
48666;DHT22;34452;50.796;4.994;2024-02-26T13:22:40;8.90;99.90
48666;DHT22;34452;50.796;4.994;2024-02-26T13:25:06;8.80;99.90
48666;DHT22;34452;50.796;4.994;2024-02-26T13:27:32;8.90;99.90
48666;DHT22;34452;50.796;4.994;2024-02-26T13:30:16;8.80;99.90
48666;DHT22;34452;50.796;4.994;2024-02-26T13:32:42;8.80;99.90
48666;DHT22;34452;50.796;4.994;2024-02-26T13:35:09;8.80;99.90
48666;DHT22;34452;50.796;4.994;2024-02-26T13:37:35;8.80;99.90
48666;DHT22;34452;50.796;4.994;2024-02-26T13:40:01;8.80;99.90
48666;DHT22;34452;50.796;4.994;2024-02-26T13:42:30;8.80;99.90
48666;DHT22;34452;50.796;4.994;2024-02-26T13:44:56;8.80;99.90
48666;DHT22;34452;50.796;4.994;2024-02-26T13:47:22;8.70;99.90
48666;DHT22;34452;50.796;4.994;2024-02-26T13:49:47;8.70;99.90
48666;DHT22;34452;50.796;4.994;2024-02-26T13:52:13;8.70;99.90
48666;DHT22;34452;50.796;4.994;2024-02-26T13:54:39;8.60;99.90
48666;DHT22;34452;50.796;4.994;2024-02-26T13:57:06;8.60;99.90
48666;DHT22;34452;50.796;4.994;2024-02-26T13:59:31;8.50;99.90
48666;DHT22;34452;50.796;4.994;2024-02-26T14:01:57;8.50;99.90
48666;DHT22;34452;50.796;4.994;2024-02-26T14:04:23;8.40;99.90
48666;DHT22;34452;50.796;4.994;2024-02-26T14:06:48;8.40;99.90
48666;DHT22;34452;50.796;4.994;2024-02-26T14:09:14;8.30;99.90
48666;DHT22;34452;50.796;4.994;2024-02-26T14:11:45;8.30;99.90
48666;DHT22;34452;50.796;4.994;2024-02-26T14:14:10;8.30;99.90
48666;DHT22;34452;50.796;4.994;2024-02-26T14:16:36;8.30;99.90
48666;DHT22;34452;50.796;4.994;2024-02-26T14:19:02;8.20;99.90
48666;DHT22;34452;50.796;4.994;2024-02-26T14:21:28;8.10;99.90
48666;DHT22;34452;50.796;4.994;2024-02-26T14:23:55;8.00;99.90
48666;DHT22;34452;50.796;4.994;2024-02-26T14:26:21;8.00;99.90
48666;DHT22;34452;50.796;4.994;2024-02-26T14:28:47;8.00;99.90
48666;DHT22;34452;50.796;4.994;2024-02-26T14:31:13;7.90;99.90
48666;DHT22;34452;50.796;4.994;2024-02-26T14:33:38;7.90;99.90
48666;DHT22;34452;50.796;4.994;2024-02-26T14:36:06;7.90;99.90
48666;DHT22;34452;50.796;4.994;2024-02-26T14:38:31;7.80;99.90
48666;DHT22;34452;50.796;4.994;2024-02-26T14:40:57;7.80;99.90
48666;DHT22;34452;50.796;4.994;2024-02-26T14:43:22;7.70;99.90
48666;DHT22;34452;50.796;4.994;2024-02-26T14:45:48;7.80;99.90
48666;DHT22;34452;50.796;4.994;2024-02-26T14:48:14;7.70;99.90
48666;DHT22;34452;50.796;4.994;2024-02-26T14:50:39;7.70;99.90
48666;DHT22;34452;50.796;4.994;2024-02-26T14:53:05;7.70;99.90
48666;DHT22;34452;50.796;4.994;2024-02-26T14:55:30;7.60;99.90
48666;DHT22;34452;50.796;4.994;2024-02-26T14:57:56;7.60;99.90
48666;DHT22;34452;50.796;4.994;2024-02-26T15:00:21;7.60;99.90
48666;DHT22;34452;50.796;4.994;2024-02-26T15:02:47;7.50;99.90
48666;DHT22;34452;50.796;4.994;2024-02-26T15:05:12;7.50;99.90
48666;DHT22;34452;50.796;4.994;2024-02-26T15:07:38;7.50;99.90
48666;DHT22;34452;50.796;4.994;2024-02-26T15:10:06;7.40;99.90
48666;DHT22;34452;50.796;4.994;2024-02-26T15:12:32;7.40;99.90
48666;DHT22;34452;50.796;4.994;2024-02-26T15:14:58;7.40;99.90
48666;DHT22;34452;50.796;4.994;2024-02-26T15:17:25;7.40;99.90
48666;DHT22;34452;50.796;4.994;2024-02-26T15:19:53;7.40;99.90
48666;DHT22;34452;50.796;4.994;2024-02-26T15:22:18;7.40;99.90
48666;DHT22;34452;50.796;4.994;2024-02-26T15:24:44;7.40;99.90
48666;DHT22;34452;50.796;4.994;2024-02-26T15:27:10;7.40;99.90
48666;DHT22;34452;50.796;4.994;2024-02-26T15:29:36;7.40;99.90
48666;DHT22;34452;50.796;4.994;2024-02-26T15:32:02;7.40;99.90
48666;DHT22;34452;50.796;4.994;2024-02-26T15:34:28;7.40;99.90
48666;DHT22;34452;50.796;4.994;2024-02-26T15:36:54;7.40;99.90
48666;DHT22;34452;50.796;4.994;2024-02-26T15:39:19;7.40;99.90
48666;DHT22;34452;50.796;4.994;2024-02-26T15:41:46;7.40;99.90